Tiempo atmosférico en la estación meteorológica de Lalastra, Araba/Álava (910 m.)



Fecha
DESCASC
Temp. máxima en grados centígrados (hora)
DESCASC
Temp. mínima en grados centígrados (hora)
DESCASC
Temp. media en grados centígrados
DESCASC
Racha de viento máxima en m/sg (hora)
DESCASC
Velocidad máxima media en intervalos de 10 minutos(hora)
DESCASC
Precipitaciones diarias en mm
DESCASC
Precipitaciones de 00:00 a 06:00 en mm
DESCASC
Precipitaciones de 06:00 a 12:00 en mm
DESCASC
Precipitaciones de 12:00 a 18:00 en mm
DESCASC
Precipitaciones de 18:00 a 24:00 en mm
DESCASC
08-12-2019 8.1 (17:00) 0.5 (01:30) 4.3 10.28 (11:00) 5.83 (11:10) 1.4 0 0.2 1.2 0
07-12-2019 11.4 (16:10) 0.2 (07:50) 5.8 4.17 (14:40) 2.5 (15:00) 0 0 0 0 0
06-12-2019 10.6 (14:10) -1.6 (07:30) 4.5 5.83 (13:50) 3.06 (13:50) 0 0 0 0 0
05-12-2019 7.6 (14:30) 2.3 (00:00) 4.9 13.89 (02:20) 6.94 (02:30) 0 0 0 0 0
04-12-2019 8.5 (14:10) -2.9 (-00:0) 2.8 12.5 (22:00) 6.94 (23:00) 0 0 0 0 0
03-12-2019 3.4 (14:20) -2.4 (-00:0) 0.5 9.72 (02:00) 5.28 (03:30) 1 1 0 0 0
02-12-2019 4.3 (04:20) 1.2 (00:00) 2.8 16.39 (12:40) 6.39 (13:20) 1.6 1.2 0 0.4 0
01-12-2019 8 (15:50) 2.2 (00:00) 5.1 12.22 (02:50) 5.83 (02:50) 1 0 0.2 0.4 0.4
30-11-2019 11.1 (08:10) 0.8 (00:00) 6 16.39 (07:30) 6.39 (07:30) 12 0 0.2 11.8 0
29-11-2019 13.5 (16:10) 6.2 (00:00) 9.8 7.78 (02:20) 4.17 (23:59) 0.4 0.4 0 0 0
28-11-2019 9.7 (11:20) 7.5 (00:00) 8.6 10.56 (15:40) 4.72 (02:00) 10 0 0 3.2 6.8
27-11-2019 9.6 (00:00) 6.5 (00:00) 8.1 15.83 (01:30) 6.11 (03:10) 2.8 0 0 2.8 0
26-11-2019 -- (--) -- (--) -- -- (--) -- (--) -- -- -- 1.4 1.2
25-11-2019 -- (--) -- (--) -- -- (--) -- (--) -- -- -- -- --
24-11-2019 -- (--) -- (--) -- -- (--) -- (--) -- -- -- -- --
23-11-2019 -- (--) -- (--) -- -- (--) -- (--) -- -- -- -- --
22-11-2019 -- (--) -- (--) -- -- (--) -- (--) -- -- -- -- --
21-11-2019 -- (--) -- (--) -- -- (--) -- (--) -- -- -- -- --
20-11-2019 -- (--) -- (--) -- -- (--) -- (--) -- -- -- -- --
19-11-2019 -- (--) -- (--) -- -- (--) -- (--) -- -- -- -- --
18-11-2019 -- (--) -- (--) -- -- (--) -- (--) -- -- -- -- --
17-11-2019 -- (--) -- (--) -- -- (--) -- (--) -- -- -- -- --
16-11-2019 -- (--) -- (--) -- -- (--) -- (--) -- -- -- -- --
15-11-2019 -- (--) -- (--) -- -- (--) -- (--) -- 4.2 -- -- --
14-11-2019 6.4 (00:50) -0.6 (-00:0) 2.9 10.28 (00:50) 5 (01:40) 9.2 8.2 0 0.6 0.4
13-11-2019 8.3 (15:50) 4.9 (00:00) 6.6 12.5 (22:20) 5.83 (04:00) 6.6 3.6 3 0 0
12-11-2019 9 (13:50) 1.1 (00:00) 5.1 9.72 (05:00) 5.83 (04:50) 6.6 0 0 0 6.6
11-11-2019 7.5 (12:20) 0.7 (23:30) 4.1 12.22 (15:20) 5.83 (13:00) 2.4 0.2 0 1.2 1

Gráficas

Temp. máximas Temp. mínimas Temp. medias Precipitaciones Rachas de viento máximas Velocidades máximas media en intervalos de 10 minutos

Datos horarios

Fecha y hora oficial Temperatura (ºC) Velocidad del viento (km/h) Dirección del viento Racha (km/h) Dirección de racha Precipitación (mm) Presión (hPa) Tendencia (hPa) Humedad (%)
2019-12-10 23:00:00 5.6 5 Oeste 20 Sudoeste 0 -- -- 69
2019-12-10 22:00:00 5.7 6 Este 20 Sudeste 0 -- -- 69
2019-12-10 21:00:00 5.5 5 Sur 21 Sur 0 -- -- 74
2019-12-10 20:00:00 4.9 9 Sur 20 Sudoeste 0 -- -- 82
2019-12-10 19:00:00 4.7 2 Este 16 Sur 0 -- -- 81
2019-12-10 18:00:00 6.1 5 Sur 12 Sudeste 0 -- -- 76
2019-12-10 17:00:00 7.2 5 Sur 16 Sur 0 -- -- 72
2019-12-10 16:00:00 8.3 9 Sur 15 Sur 0 -- -- 69
2019-12-10 15:00:00 9.2 7 Sur 15 Sudeste 0 -- -- 67
2019-12-10 14:00:00 8.7 6 Sur 19 Sur 0 -- -- 70
2019-12-10 13:00:00 8.2 6 Sur 24 Sur 0 -- -- 70
2019-12-10 12:00:00 6.4 5 Sur 15 Sur 0 -- -- 79
2019-12-10 11:00:00 3.6 2 Nordeste 5 Noroeste 0 -- -- 99
2019-12-10 10:00:00 0.2 0 Calma 5 Oeste 0 -- -- 100
2019-12-10 09:00:00 -0.8 0 Calma 5 Noroeste 0 -- -- 99
2019-12-10 08:00:00 -0.5 2 Nordeste 6 Este 0 -- -- 99
2019-12-10 07:00:00 -0.6 2 Sudeste 10 Sudeste 0 -- -- 99
2019-12-10 06:00:00 -0.6 0 Calma 9 Este 0 -- -- 99
2019-12-10 05:00:00 -1.1 0 Calma 5 Este 0 -- -- 97
2019-12-10 04:00:00 -0.5 0 Calma 6 Este 0 -- -- 96
2019-12-10 03:00:00 0.3 0 Calma 6 Nordeste 0 -- -- 94
2019-12-10 02:00:00 1.4 0 Calma 8 Nordeste 0 -- -- 93
2019-12-10 01:00:00 2.8 0 Calma 8 Noroeste 0 -- -- 91
2019-12-10 00:00:00 3.9 3 Sudeste 11 Norte 0 -- -- 89
2019-12-09 23:00:00 4.7 3 Sur 10 Noroeste 0 -- -- 90
2019-12-09 22:00:00 4.9 8 Norte 17 Noroeste 0 -- -- 89
2019-12-09 21:00:00 4.9 4 Norte 11 Norte 0 -- -- 89
2019-12-09 20:00:00 4.8 2 Oeste 18 Norte 0 -- -- 87
2019-12-09 19:00:00 5.2 7 Norte 19 Norte 0 -- -- 84
2019-12-09 18:00:00 5.8 13 Noroeste 29 Oeste 0 -- -- 80
2019-12-09 17:00:00 6.4 10 Noroeste 27 Noroeste 0 -- -- 84
2019-12-09 16:00:00 7.7 13 Norte 31 Norte 0 -- -- 76
2019-12-09 15:00:00 8.4 18 Noroeste 31 Noroeste 0 -- -- 74
2019-12-09 14:00:00 8.2 15 Noroeste 42 Oeste 0 -- -- 75
2019-12-09 13:00:00 7.2 16 Noroeste 32 Oeste 0 -- -- 81
2019-12-09 12:00:00 7.1 13 Noroeste 35 Noroeste 0 -- -- 81
2019-12-09 11:00:00 6.9 14 Noroeste 35 Noroeste 0 -- -- 79
2019-12-09 10:00:00 6.2 21 Noroeste 40 Noroeste 0 -- -- 80
2019-12-09 09:00:00 5.3 19 Oeste 37 Noroeste 0 -- -- 84
2019-12-09 08:00:00 4.5 15 Oeste 28 Oeste 0 -- -- 87
2019-12-09 07:00:00 3.1 13 Oeste 26 Oeste 0 -- -- 91
2019-12-09 06:00:00 3.1 13 Noroeste 25 Oeste 0 -- -- 89
2019-12-09 05:00:00 3.3 10 Oeste 21 Oeste 0 -- -- 78
2019-12-09 04:00:00 3.1 8 Oeste 24 Oeste 0 -- -- 88
2019-12-09 03:00:00 3.2 5 Noroeste 24 Oeste 0 -- -- 78
2019-12-09 02:00:00 5.2 15 Oeste 27 Oeste 0 -- -- 68
2019-12-09 01:00:00 4.1 9 Oeste 28 Oeste 0 -- -- 87
2019-12-09 00:00:00 4.8 17 Oeste 28 Oeste 0 -- -- 93
2019-12-08 23:00:00 4 10 Noroeste 22 Noroeste 0 -- -- 93
2019-12-08 22:00:00 4.4 4 Norte 20 Oeste 0 -- -- 94
2019-12-08 21:00:00 5.3 8 Sudoeste 21 Norte 0 -- -- 96
2019-12-08 20:00:00 6.4 8 Noroeste 24 Noroeste 0 -- -- 95
2019-12-08 19:00:00 7.2 13 Oeste 28 Noroeste 0 -- -- 96
2019-12-08 18:00:00 7.5 12 Oeste 23 Oeste 0 -- -- 98
2019-12-08 17:00:00 8.1 10 Noroeste 19 Noroeste 0 -- -- 98
2019-12-08 16:00:00 7.8 11 Sudoeste 20 Sudoeste 0 -- -- 99
2019-12-08 15:00:00 6.9 6 Sudoeste 12 Sudeste 0 -- -- 97
2019-12-08 14:00:00 6.6 4 Sudeste 15 Sur 0.6 -- -- 97
2019-12-08 13:00:00 6.3 6 Sudeste 15 Sudeste 0.6 -- -- 96
2019-12-08 12:00:00 7.2 6 Sudeste 35 Sudoeste 0.2 -- -- 94
2019-12-08 11:00:00 6.9 20 Sudoeste 37 Sudoeste 0 -- -- 95
2019-12-08 10:00:00 6 7 Sudoeste 21 Oeste 0 -- -- 99
2019-12-08 09:00:00 5.6 10 Sudoeste 22 Sur 0 -- -- 99
2019-12-08 08:00:00 4.5 5 Sudeste 17 Sur 0 -- -- 100
2019-12-08 07:00:00 3.8 8 Sur 15 Sudeste 0 -- -- 100
2019-12-08 06:00:00 2.5 6 Sudoeste 26 Oeste 0 -- -- 99
2019-12-08 05:00:00 1.7 3 Sudoeste 13 Sudoeste 0 -- -- 99
2019-12-08 04:00:00 2.1 6 Oeste 15 Sudoeste 0 -- -- 99
2019-12-08 03:00:00 1.9 2 Sudeste 12 Este 0 -- -- 99
2019-12-08 02:00:00 0.5 2 Sudeste 9 Sudeste 0 -- -- 98
2019-12-08 01:00:00 0.8 4 Este 6 Nordeste 0 -- -- 98
2019-12-08 00:00:00 1.1 0 Calma 6 Norte 0 -- -- 98
2019-12-07 23:00:00 1.5 0 Calma 3 Este 0 -- -- 97
2019-12-07 22:00:00 2.2 2 Nordeste 6 Este 0 -- -- 97
2019-12-07 21:00:00 2.5 0 Calma 3 Este 0 -- -- 96
2019-12-07 20:00:00 3.5 3 Nordeste 6 Nordeste 0 -- -- 94
2019-12-07 19:00:00 4.4 4 Nordeste 7 Nordeste 0 -- -- 91
2019-12-07 18:00:00 6.2 0 Calma 5 Nordeste 0 -- -- 85
2019-12-07 17:00:00 9.3 0 Calma 12 Sudoeste 0 -- -- 73
2019-12-07 16:00:00 11.3 5 Sur 15 Sudeste 0 -- -- 68
2019-12-07 15:00:00 10.7 9 Sur 15 Sur 0 -- -- 69
2019-12-07 14:00:00 10.8 5 Sudoeste 9 Oeste 0 -- -- 73
2019-12-07 13:00:00 8.9 6 Sur 12 Sur 0 -- -- 80
2019-12-07 12:00:00 8.6 4 Sur 13 Sur 0 -- -- 84
2019-12-07 11:00:00 6.1 2 Sudoeste 5 Sur 0 -- -- 100
2019-12-07 10:00:00 2 0 Calma 5 Sudeste 0 -- -- 100
2019-12-07 09:00:00 0.4 2 Nordeste 6 Este 0 -- -- 100
2019-12-07 08:00:00 0.3 0 Calma 4 Sur 0 -- -- 99
2019-12-07 07:00:00 0.5 3 Norte 5 Noroeste 0 -- -- 99
2019-12-07 06:00:00 1 0 Calma 4 Nordeste 0 -- -- 98
2019-12-07 05:00:00 1.1 0 Calma 5 Nordeste 0 -- -- 99
2019-12-07 04:00:00 1.7 0 Calma 4 Nordeste 0 -- -- 98
2019-12-07 03:00:00 2.4 3 Norte 5 Norte 0 -- -- 95
2019-12-07 02:00:00 3.7 0 Calma 5 Noroeste 0 -- -- 97
2019-12-07 01:00:00 3.6 0 Calma 6 Sudeste 0 -- -- 98
2019-12-07 00:00:00 3.1 0 Calma 5 Oeste 0 -- -- 98
2019-12-06 23:00:00 2.7 4 Este 6 Nordeste 0 -- -- 98
2019-12-06 22:00:00 2.6 0 Calma 6 Este 0 -- -- 95
2019-12-06 21:00:00 2.7 0 Calma 8 Nordeste 0 -- -- 95
2019-12-06 20:00:00 3.6 4 Nordeste 6 Nordeste 0 -- -- 92
2019-12-06 19:00:00 5.1 2 Nordeste 10 Norte 0 -- -- 89
2019-12-06 18:00:00 6.7 3 Este 9 Este 0 -- -- 85
2019-12-06 17:00:00 9.2 2 Este 10 Sudoeste 0 -- -- 77
2019-12-06 16:00:00 10.4 4 Sudoeste 12 Sur 0 -- -- 74
2019-12-06 15:00:00 10.4 4 Sudoeste 18 Oeste 0 -- -- 72
2019-12-06 14:00:00 10.5 8 Oeste 21 Oeste 0 -- -- 72
2019-12-06 13:00:00 9.4 5 Sudoeste 15 Sudoeste 0 -- -- 75
2019-12-06 12:00:00 7.1 4 Sur 8 Sudeste 0 -- -- 91
2019-12-06 11:00:00 4.3 3 Nordeste 6 Oeste 0 -- -- 100
2019-12-06 10:00:00 1.4 0 Calma 4 Sudeste 0 -- -- 100
2019-12-06 09:00:00 -1.3 0 Calma 4 Este 0 -- -- 100
2019-12-06 08:00:00 -1.5 0 Calma 4 Este 0 -- -- 99
2019-12-06 07:00:00 -1.3 2 Sudeste 5 Nordeste 0 -- -- 99
2019-12-06 06:00:00 -1 0 Calma 5 Nordeste 0 -- -- 98
2019-12-06 05:00:00 -0.7 3 Nordeste 5 Norte 0 -- -- 99
2019-12-06 04:00:00 -0.7 0 Calma 4 Este 0 -- -- 98
2019-12-06 03:00:00 -0.1 0 Calma 6 Norte 0 -- -- 97
2019-12-06 02:00:00 0.7 3 Este 6 Nordeste 0 -- -- 97
2019-12-06 01:00:00 1.7 0 Calma 6 Norte 0 -- -- 97
2019-12-06 00:00:00 2.3 0 Calma 8 Sudeste 0 -- -- 96
2019-12-05 23:00:00 3 3 Sur 6 Sur 0 -- -- 95
2019-12-05 22:00:00 3.9 0 Calma 9 Sudeste 0 -- -- 92
2019-12-05 21:00:00 4.6 4 Sur 13 Sudeste 0 -- -- 93
2019-12-05 20:00:00 5.2 4 Noroeste 16 Sudeste 0 -- -- 92
2019-12-05 19:00:00 5.7 5 Noroeste 19 Noroeste 0 -- -- 91
2019-12-05 18:00:00 6 5 Sudoeste 14 Noroeste 0 -- -- 90
2019-12-05 17:00:00 6.6 5 Sudoeste 18 Sur 0 -- -- 87
2019-12-05 16:00:00 7.4 7 Noroeste 22 Este 0 -- -- 80
2019-12-05 15:00:00 7.3 5 Norte 31 Este 0 -- -- 83
2019-12-05 14:00:00 7.2 6 Nordeste 20 Norte 0 -- -- 84
2019-12-05 13:00:00 6.7 5 Este 19 Norte 0 -- -- 86
2019-12-05 12:00:00 6.2 7 Sudeste 21 Este 0 -- -- 89
2019-12-05 11:00:00 6.2 6 Sudoeste 15 Noroeste 0 -- -- 87
2019-12-05 10:00:00 4.6 6 Noroeste 15 Norte 0 -- -- 92
2019-12-05 09:00:00 3.9 6 Oeste 26 Sudeste 0 -- -- 96
2019-12-05 08:00:00 3.7 6 Sudeste 26 Este 0 -- -- 98
2019-12-05 07:00:00 3.4 4 Oeste 35 Norte 0 -- -- 99
2019-12-05 06:00:00 3.7 17 Norte 40 Norte 0 -- -- 97
2019-12-05 05:00:00 4.1 16 Noroeste 38 Noroeste 0 -- -- 93
2019-12-05 04:00:00 4.3 23 Norte 40 Norte 0 -- -- 96
2019-12-05 03:00:00 4.3 17 Norte 50 Noroeste 0 -- -- 92
2019-12-05 02:00:00 4.8 17 Norte 40 Noroeste 0 -- -- 95
2019-12-05 01:00:00 4.7 18 Norte 40 Norte 0 -- -- 97
2019-12-05 00:00:00 4.5 14 Noroeste 43 Norte 0 -- -- 93
2019-12-04 23:00:00 4.2 25 Norte 44 Norte 0 -- -- 94
2019-12-04 22:00:00 4.5 15 Norte 45 Norte 0 -- -- 95
2019-12-04 21:00:00 4.4 7 Noroeste 30 Norte 0 -- -- 92
2019-12-04 20:00:00 4.1 14 Norte 33 Noroeste 0 -- -- 93
2019-12-04 19:00:00 3.4 9 Noroeste 28 Nordeste 0 -- -- 92
2019-12-04 18:00:00 4 10 Nordeste 21 Nordeste 0 -- -- 83
2019-12-04 17:00:00 5.6 7 Nordeste 26 Oeste 0 -- -- 78
2019-12-04 16:00:00 7.3 12 Norte 34 Norte 0 -- -- 77
2019-12-04 15:00:00 8.4 10 Nordeste 26 Nordeste 0 -- -- 71
2019-12-04 14:00:00 8.3 8 Norte 26 Nordeste 0 -- -- 71
2019-12-04 13:00:00 8.3 10 Nordeste 22 Nordeste 0 -- -- 68
2019-12-04 12:00:00 6.4 7 Nordeste 23 Este 0 -- -- 78
2019-12-04 11:00:00 1.7 0 Calma 6 Norte 0 -- -- 99
2019-12-04 10:00:00 -1.3 0 Calma 6 Sudeste 0 -- -- 100
2019-12-04 09:00:00 -2.5 0 Calma 5 Este 0 -- -- 99
2019-12-04 08:00:00 -2.9 2 Nordeste 6 Este 0 -- -- 98
2019-12-04 07:00:00 -2.4 2 Noroeste 8 Nordeste 0 -- -- 98
2019-12-04 06:00:00 -2.3 2 Nordeste 6 Nordeste 0 -- -- 100
2019-12-04 05:00:00 -2.4 3 Noroeste 7 Este 0 -- -- 98
2019-12-04 04:00:00 -2.1 3 Sudeste 5 Sudeste 0 -- -- 99
2019-12-04 03:00:00 -2.4 0 Calma 5 Nordeste 0 -- -- 98
2019-12-04 02:00:00 -2.2 3 Nordeste 7 Nordeste 0 -- -- 99
2019-12-04 01:00:00 -2.5 0 Calma 4 Sudeste 0 -- -- 98
2019-12-04 00:00:00 -2.4 0 Calma 6 Sudeste 0 -- -- 98
2019-12-03 23:00:00 -2.1 4 Este 5 Este 0 -- -- 98
2019-12-03 22:00:00 -2.1 3 Este 6 Sudeste 0 -- -- 97
2019-12-03 21:00:00 -1.7 0 Calma 12 Este 0 -- -- 96
2019-12-03 20:00:00 -1.1 2 Sudoeste 5 Oeste 0 -- -- 94
2019-12-03 19:00:00 0.3 2 Sur 8 Sudeste 0 -- -- 90
2019-12-03 18:00:00 1.2 5 Sudeste 10 Sudeste 0 -- -- 87
2019-12-03 17:00:00 1.8 4 Sudeste 14 Este 0 -- -- 84
2019-12-03 16:00:00 2.5 6 Sudeste 18 Sudeste 0 -- -- 79
2019-12-03 15:00:00 2.6 6 Sudeste 19 Sudeste 0 -- -- 84
2019-12-03 14:00:00 2.7 6 Nordeste 13 Este 0 -- -- 86
2019-12-03 13:00:00 2 5 Este 18 Norte 0 -- -- 90
2019-12-03 12:00:00 1.8 9 Noroeste 24 Norte 0 -- -- 91
2019-12-03 11:00:00 1.3 10 Noroeste 22 Noroeste 0 -- -- 96
2019-12-03 10:00:00 0.9 4 Oeste 21 Noroeste 0 -- -- 99
2019-12-03 09:00:00 0.8 4 Oeste 18 Noroeste 0 -- -- 99
2019-12-03 08:00:00 0.9 5 Norte 26 Noroeste 0 -- -- 100
2019-12-03 07:00:00 0.9 10 Noroeste 19 Noroeste 0 -- -- 100
2019-12-03 06:00:00 0.7 10 Noroeste 28 Noroeste 0 -- -- 99
2019-12-03 05:00:00 0.6 13 Noroeste 27 Noroeste 0 -- -- 99
2019-12-03 04:00:00 0.6 15 Noroeste 33 Norte 0.4 -- -- 99
2019-12-03 03:00:00 0.7 13 Noroeste 32 Noroeste 0.4 -- -- 98
2019-12-03 02:00:00 1.1 15 Noroeste 35 Noroeste 0.2 -- -- 98
2019-12-03 01:00:00 1.2 12 Noroeste 33 Noroeste 0 -- -- 98
2019-12-03 00:00:00 1.2 16 Noroeste 33 Norte 0 -- -- 98
2019-12-02 23:00:00 1.3 12 Noroeste 39 Norte 0 -- -- 97
2019-12-02 22:00:00 1.4 9 Noroeste 37 Noroeste 0 -- -- 97
2019-12-02 21:00:00 1.5 15 Noroeste 46 Norte 0 -- -- 96
2019-12-02 20:00:00 1.4 16 Noroeste 40 Norte 0 -- -- 95
2019-12-02 19:00:00 1.5 15 Noroeste 34 Noroeste 0 -- -- 91
2019-12-02 18:00:00 1.7 16 Noroeste 38 Norte 0 -- -- 93
2019-12-02 17:00:00 2.1 16 Noroeste 54 Norte 0 -- -- 95
2019-12-02 16:00:00 2.8 21 Noroeste 45 Noroeste 0 -- -- 94
2019-12-02 15:00:00 3.3 22 Noroeste 44 Norte 0.2 -- -- 96
2019-12-02 14:00:00 3.9 12 Noroeste 47 Noroeste 0 -- -- 97
2019-12-02 13:00:00 4.1 21 Noroeste 59 Noroeste 0.2 -- -- 98
2019-12-02 12:00:00 4.2 21 Noroeste 44 Norte 0 -- -- 98
2019-12-02 11:00:00 4.1 9 Noroeste 21 Noroeste 0 -- -- 97
2019-12-02 10:00:00 4 8 Oeste 24 Oeste 0 -- -- 98
2019-12-02 09:00:00 3.9 10 Oeste 24 Oeste 0 -- -- 98
2019-12-02 08:00:00 4.1 8 Noroeste 19 Oeste 0 -- -- 99
2019-12-02 07:00:00 4.1 8 Oeste 18 Oeste 0 -- -- 99
2019-12-02 06:00:00 3.9 8 Oeste 18 Este 0.2 -- -- 98
2019-12-02 05:00:00 3.9 9 Sudeste 26 Sudeste 0.4 -- -- 98
2019-12-02 04:00:00 4.2 3 Este 20 Noroeste 0.6 -- -- 98
2019-12-02 03:00:00 4.1 8 Noroeste 16 Noroeste 0 -- -- 98
2019-12-02 02:00:00 3.9 4 Noroeste 14 Nordeste 0 -- -- 96
2019-12-02 01:00:00 3.5 4 Sudoeste 11 Sudoeste 0 -- -- 97
2019-12-02 00:00:00 3.3 3 Norte 22 Norte 0 -- -- 95
2019-12-01 23:00:00 3.8 10 Noroeste 21 Noroeste 0.4 -- -- 96
2019-12-01 22:00:00 4.2 7 Norte 18 Nordeste 0 -- -- 96
2019-12-01 21:00:00 4.5 10 Nordeste 22 Norte 0 -- -- 94
2019-12-01 20:00:00 4.7 7 Norte 17 Norte 0 -- -- 95
2019-12-01 19:00:00 4.7 8 Norte 20 Norte 0 -- -- 94
2019-12-01 18:00:00 5.2 5 Norte 27 Norte 0.4 -- -- 92
2019-12-01 17:00:00 6.7 14 Norte 24 Norte 0 -- -- 85
2019-12-01 16:00:00 7.9 4 Noroeste 10 Noroeste 0 -- -- 81
2019-12-01 15:00:00 7.4 5 Norte 11 Oeste 0 -- -- 82
2019-12-01 14:00:00 7.1 2 Noroeste 12 Noroeste 0 -- -- 86
2019-12-01 13:00:00 6.5 6 Noroeste 15 Oeste 0 -- -- 89
2019-12-01 12:00:00 6 6 Oeste 12 Oeste 0 -- -- 91
2019-12-01 11:00:00 5.6 3 Sudoeste 12 Oeste 0 -- -- 96
2019-12-01 10:00:00 4.8 6 Sudoeste 16 Sur 0 -- -- 96
2019-12-01 09:00:00 4.5 13 Sudoeste 23 Sudoeste 0 -- -- 96
2019-12-01 08:00:00 4.5 13 Sudoeste 31 Sudoeste 0 -- -- 96
2019-12-01 07:00:00 4.5 9 Sur 31 Sur 0.2 -- -- 96
2019-12-01 06:00:00 4.5 17 Sudoeste 32 Sur 0 -- -- 95
2019-12-01 05:00:00 4.4 17 Sudoeste 38 Sudoeste 0 -- -- 94
2019-12-01 04:00:00 4.2 17 Sudoeste 33 Sudoeste 0 -- -- 94
2019-12-01 03:00:00 4.1 20 Sudoeste 44 Sudoeste 0 -- -- 96
2019-12-01 02:00:00 3.9 12 Sudoeste 31 Sudoeste 0 -- -- 97
2019-12-01 01:00:00 3.6 12 Sudoeste 24 Sur 0 -- -- 99
2019-12-01 00:00:00 2.2 9 Sudoeste 20 Sudoeste 0 -- -- 100
2019-11-30 23:00:00 0.9 4 Nordeste 10 Sudoeste 0 -- -- 99
2019-11-30 22:00:00 1.4 3 Este 4 Este 0 -- -- 98
2019-11-30 21:00:00 2.4 3 Nordeste 7 Nordeste 0 -- -- 96
2019-11-30 20:00:00 3.6 3 Este 6 Nordeste 0 -- -- 96
2019-11-30 19:00:00 5.4 4 Oeste 18 Noroeste 0 -- -- 95
2019-11-30 18:00:00 6 4 Sudoeste 38 Sudoeste 0.2 -- -- 93
2019-11-30 17:00:00 7 8 Noroeste 23 Oeste 0.2 -- -- 95
2019-11-30 16:00:00 7.7 3 Sudeste 12 Noroeste 0.6 -- -- 96
2019-11-30 15:00:00 8.6 4 Nordeste 36 Sudeste 3.2 -- -- 93
2019-11-30 14:00:00 10.6 16 Sur 46 Sur 7.4 -- -- 97
2019-11-30 13:00:00 10.7 17 Sur 35 Sudeste 0.2 -- -- 96
2019-11-30 12:00:00 10.7 16 Sudeste 38 Sur 0.2 -- -- 95
2019-11-30 11:00:00 10.5 10 Sur 38 Sur 0 -- -- 95
2019-11-30 10:00:00 10.8 20 Sur 51 Sur 0 -- -- 92
2019-11-30 09:00:00 10.9 21 Sur 40 Sur 0 -- -- 91
2019-11-30 08:00:00 11 18 Sudoeste 59 Sur 0 -- -- 88
2019-11-30 07:00:00 10.6 12 Sur 45 Sur 0 -- -- 95
2019-11-30 06:00:00 10.5 17 Sur 46 Sur 0 -- -- 95
2019-11-30 05:00:00 10.3 14 Sudeste 48 Sur 0 -- -- 94
2019-11-30 04:00:00 10.1 12 Sudoeste 30 Sur 0 -- -- 93
2019-11-30 03:00:00 10 12 Sur 33 Sur 0 -- -- 92
2019-11-30 02:00:00 9.7 10 Sur 27 Sudoeste 0 -- -- 91
2019-11-30 01:00:00 9.4 10 Sudoeste 29 Sudoeste 0 -- -- 92
2019-11-30 00:00:00 9.1 15 Sudoeste 27 Sudoeste 0 -- -- 91
2019-11-29 23:00:00 8.5 8 Sudoeste 25 Sur 0 -- -- 92
2019-11-29 22:00:00 7.1 7 Oeste 19 Oeste 0 -- -- 91
2019-11-29 21:00:00 6.7 5 Oeste 23 Sudoeste 0 -- -- 91
2019-11-29 20:00:00 6.3 8 Oeste 22 Sudoeste 0 -- -- 89
2019-11-29 19:00:00 7 3 Sudeste 14 Sur 0 -- -- 88
2019-11-29 18:00:00 9 4 Sudoeste 15 Sur 0 -- -- 80
2019-11-29 17:00:00 11.6 7 Sudoeste 17 Sudoeste 0 -- -- 74
2019-11-29 16:00:00 13.4 4 Sudoeste 19 Sur 0 -- -- 70
2019-11-29 15:00:00 12.9 6 Oeste 20 Sur 0 -- -- 73
2019-11-29 14:00:00 12.9 9 Sudoeste 19 Sudoeste 0 -- -- 69
2019-11-29 13:00:00 11.4 6 Sudoeste 13 Sudoeste 0 -- -- 78
2019-11-29 12:00:00 10 4 Sudoeste 7 Sudoeste 0 -- -- 89
2019-11-29 11:00:00 9.8 2 Norte 5 Norte 0 -- -- 91
2019-11-29 10:00:00 7.8 2 Oeste 4 Oeste 0 -- -- 99
2019-11-29 09:00:00 7.1 0 Calma 6 Este 0 -- -- 99
2019-11-29 08:00:00 7.7 0 Calma 4 Nordeste 0 -- -- 99
2019-11-29 07:00:00 7.8 3 Este 6 Este 0 -- -- 99
2019-11-29 06:00:00 7.7 0 Calma 6 Sudeste 0 -- -- 98
2019-11-29 05:00:00 7.7 0 Calma 16 Oeste 0 -- -- 98
2019-11-29 04:00:00 8.1 10 Noroeste 19 Oeste 0 -- -- 97
2019-11-29 03:00:00 8.7 12 Noroeste 28 Noroeste 0 -- -- 97
2019-11-29 02:00:00 9.4 9 Oeste 22 Noroeste 0.2 -- -- 99
2019-11-29 01:00:00 9.3 10 Oeste 26 Oeste 0.2 -- -- 98
2019-11-29 00:00:00 9.2 7 Sudoeste 29 Sudoeste 0 -- -- 98
2019-11-28 23:00:00 9.2 7 Noroeste 22 Noroeste 2.4 -- -- 98
2019-11-28 22:00:00 9.2 6 Sur 28 Sur 1.2 -- -- 97
2019-11-28 21:00:00 9.2 12 Oeste 23 Oeste 0.2 -- -- 97
2019-11-28 20:00:00 9.1 4 Oeste 21 Sudoeste 0.6 -- -- 96
2019-11-28 19:00:00 8.9 7 Oeste 30 Sudoeste 2.4 -- -- 97
2019-11-28 18:00:00 9 9 Oeste 30 Oeste 1 -- -- 96
2019-11-28 17:00:00 9.2 5 Este 31 Sudeste 2.2 -- -- 95
2019-11-28 16:00:00 9.4 8 Sur 38 Sudeste 0 -- -- 92
2019-11-28 15:00:00 9.3 6 Noroeste 23 Noroeste 0 -- -- 93
2019-11-28 14:00:00 9.2 9 Sur 32 Sur 0 -- -- 94
2019-11-28 13:00:00 9.5 10 Noroeste 27 Oeste 0 -- -- 91
2019-11-28 12:00:00 9.6 8 Noroeste 26 Sudoeste 0 -- -- 90
2019-11-28 11:00:00 9.5 11 Oeste 37 Sudoeste 0 -- -- 90
2019-11-28 10:00:00 9 9 Oeste 32 Oeste 0 -- -- 91
2019-11-28 09:00:00 8.7 13 Noroeste 30 Noroeste 0 -- -- 91
2019-11-28 08:00:00 8.5 8 Oeste 24 Oeste 0 -- -- 90
2019-11-28 07:00:00 8.2 9 Oeste 23 Oeste 0 -- -- 90
2019-11-28 06:00:00 7.9 5 Sudoeste 28 Noroeste 0 -- -- 89
2019-11-28 05:00:00 8 8 Oeste 30 Noroeste 0 -- -- 90
2019-11-28 04:00:00 7.8 12 Oeste 31 Noroeste 0 -- -- 90
2019-11-28 03:00:00 7.5 10 Sudoeste 29 Noroeste 0 -- -- 93
2019-11-28 02:00:00 7.7 17 Oeste 33 Oeste 0 -- -- 89
2019-11-28 01:00:00 7.6 9 Sur 25 Sur 0 -- -- 91
2019-11-28 00:00:00 7.6 12 Oeste 37 Oeste 0 -- -- 89
2019-11-27 23:00:00 7.6 13 Oeste 32 Oeste 0 -- -- 90
2019-11-27 22:00:00 7.5 15 Sur 37 Sudoeste 0 -- -- 91
2019-11-27 21:00:00 7 12 Oeste 29 Sudoeste 0 -- -- 91
2019-11-27 20:00:00 7.2 5 Noroeste 23 Noroeste 0 -- -- 90
2019-11-27 19:00:00 6.9 8 Oeste 26 Oeste 0 -- -- 93
2019-11-27 18:00:00 7.2 3 Sudeste 19 Oeste 0 -- -- 96
2019-11-27 17:00:00 7.4 12 Oeste 28 Oeste 1.4 -- -- 96
2019-11-27 16:00:00 7.6 5 Oeste 21 Noroeste 1.4 -- -- 94
2019-11-27 15:00:00 8 7 Sudoeste 31 Noroeste 0 -- -- 89
2019-11-27 14:00:00 8.4 10 Noroeste 31 Sudoeste 0 -- -- 83
2019-11-27 06:00:00 7.1 17 Oeste 44 Oeste 0 -- -- 83
2019-11-27 05:00:00 7 13 Oeste 35 Oeste 0 -- -- 82
2019-11-27 04:00:00 7.1 12 Oeste 46 Sudoeste 0 -- -- 79
2019-11-27 03:00:00 7.8 17 Oeste 45 Oeste 0 -- -- 76
2019-11-27 02:00:00 8.8 13 Noroeste 57 Oeste 0 -- -- 80
2019-11-27 01:00:00 9.1 22 Oeste 40 Noroeste 0 -- -- 79
2019-11-27 00:00:00 9.6 11 Oeste 46 Oeste 0 -- -- 85
2019-11-26 23:00:00 10.4 15 Noroeste 43 Noroeste 0 -- -- 79
2019-11-26 22:00:00 10.8 8 Nordeste 43 Noroeste 0 -- -- 78
2019-11-26 21:00:00 11.3 17 Nordeste 49 Norte 0 -- -- 74
2019-11-26 20:00:00 11.3 11 Norte 58 Noroeste 0 -- -- 77
2019-11-26 19:00:00 11.7 17 Noroeste 52 Sudeste 1.2 -- -- 90
2019-11-26 18:00:00 12.2 25 Sudeste 50 Este 1.4 -- -- 91
2019-11-26 17:00:00 12.2 20 Sur 52 Sur 0 -- -- 90
2019-11-26 16:00:00 12.6 22 Sur 62 Sur 0 -- -- 88
2019-11-26 15:00:00 12.3 16 Sur 55 Sur 0 -- -- 88
2019-11-26 14:00:00 11.4 17 Sur 48 Sur 0 -- -- 94
2019-11-26 13:00:00 11.3 21 Sudoeste -- -- -- -- -- 93
2019-11-26 12:00:00 -- 25 Sur -- -- -- -- -- --
2019-11-26 11:00:00 -- -- -- -- -- -- -- -- --
2019-11-26 10:00:00 -- -- -- -- -- -- -- -- --
2019-11-26 09:00:00 -- -- -- -- -- -- -- -- --
2019-11-26 08:00:00 -- -- -- -- -- -- -- -- --
2019-11-26 07:00:00 -- -- -- -- -- -- -- -- --
2019-11-26 06:00:00 -- -- -- -- -- -- -- -- --
2019-11-26 05:00:00 -- -- -- -- -- -- -- -- --
2019-11-26 04:00:00 -- -- -- -- -- -- -- -- --
2019-11-26 03:00:00 -- -- -- -- -- -- -- -- --
2019-11-26 02:00:00 -- -- -- -- -- -- -- -- --
2019-11-26 01:00:00 -- -- -- -- -- -- -- -- --
2019-11-26 00:00:00 -- -- -- -- -- -- -- -- --
2019-11-25 23:00:00 -- -- -- -- -- -- -- -- --
2019-11-25 22:00:00 -- -- -- -- -- -- -- -- --
2019-11-25 21:00:00 -- -- -- -- -- -- -- -- --
2019-11-25 20:00:00 -- -- -- -- -- -- -- -- --
2019-11-25 19:00:00 -- -- -- -- -- -- -- -- --
2019-11-25 18:00:00 -- -- -- -- -- -- -- -- --
2019-11-25 17:00:00 -- -- -- -- -- -- -- -- --
2019-11-25 16:00:00 -- -- -- -- -- -- -- -- --
2019-11-25 15:00:00 -- -- -- -- -- -- -- -- --
2019-11-25 14:00:00 -- -- -- -- -- -- -- -- --
2019-11-25 13:00:00 -- -- -- -- -- -- -- -- --
2019-11-25 12:00:00 -- -- -- -- -- -- -- -- --
2019-11-25 11:00:00 -- -- -- -- -- -- -- -- --
2019-11-25 10:00:00 -- -- -- -- -- -- -- -- --
2019-11-25 09:00:00 -- -- -- -- -- -- -- -- --
2019-11-25 08:00:00 -- -- -- -- -- -- -- -- --
2019-11-25 07:00:00 -- -- -- -- -- -- -- -- --
2019-11-25 06:00:00 -- -- -- -- -- -- -- -- --
2019-11-25 05:00:00 -- -- -- -- -- -- -- -- --
2019-11-25 04:00:00 -- -- -- -- -- -- -- -- --
2019-11-25 03:00:00 -- -- -- -- -- -- -- -- --
2019-11-25 02:00:00 -- -- -- -- -- -- -- -- --
2019-11-25 01:00:00 -- -- -- -- -- -- -- -- --
2019-11-25 00:00:00 -- -- -- -- -- -- -- -- --
2019-11-24 23:00:00 -- -- -- -- -- -- -- -- --
2019-11-24 22:00:00 -- -- -- -- -- -- -- -- --
2019-11-24 21:00:00 -- -- -- -- -- -- -- -- --
2019-11-24 20:00:00 -- -- -- -- -- -- -- -- --
2019-11-24 19:00:00 -- -- -- -- -- -- -- -- --
2019-11-24 18:00:00 -- -- -- -- -- -- -- -- --
2019-11-24 17:00:00 -- -- -- -- -- -- -- -- --
2019-11-24 16:00:00 -- -- -- -- -- -- -- -- --
2019-11-24 15:00:00 -- -- -- -- -- -- -- -- --
2019-11-24 14:00:00 -- -- -- -- -- -- -- -- --
2019-11-24 13:00:00 -- -- -- -- -- -- -- -- --
2019-11-24 12:00:00 -- -- -- -- -- -- -- -- --
2019-11-24 11:00:00 -- -- -- -- -- -- -- -- --
2019-11-24 10:00:00 -- -- -- -- -- -- -- -- --
2019-11-24 09:00:00 -- -- -- -- -- -- -- -- --
2019-11-24 08:00:00 -- -- -- -- -- -- -- -- --
2019-11-24 07:00:00 -- -- -- -- -- -- -- -- --
2019-11-24 06:00:00 -- -- -- -- -- -- -- -- --
2019-11-24 05:00:00 -- -- -- -- -- -- -- -- --
2019-11-24 04:00:00 -- -- -- -- -- -- -- -- --
2019-11-24 03:00:00 -- -- -- -- -- -- -- -- --
2019-11-24 02:00:00 -- -- -- -- -- -- -- -- --
2019-11-24 01:00:00 -- -- -- -- -- -- -- -- --
2019-11-24 00:00:00 -- -- -- -- -- -- -- -- --
2019-11-23 23:00:00 -- -- -- -- -- -- -- -- --
2019-11-23 22:00:00 -- -- -- -- -- -- -- -- --
2019-11-23 21:00:00 -- -- -- -- -- -- -- -- --
2019-11-23 20:00:00 -- -- -- -- -- -- -- -- --
2019-11-23 19:00:00 -- -- -- -- -- -- -- -- --
2019-11-23 18:00:00 -- -- -- -- -- -- -- -- --
2019-11-23 17:00:00 -- -- -- -- -- -- -- -- --
2019-11-23 16:00:00 -- -- -- -- -- -- -- -- --
2019-11-23 15:00:00 -- -- -- -- -- -- -- -- --
2019-11-23 14:00:00 -- -- -- -- -- -- -- -- --
2019-11-23 13:00:00 -- -- -- -- -- -- -- -- --
2019-11-23 12:00:00 -- -- -- -- -- -- -- -- --
2019-11-23 11:00:00 -- -- -- -- -- -- -- -- --
2019-11-23 10:00:00 -- -- -- -- -- -- -- -- --
2019-11-23 09:00:00 -- -- -- -- -- -- -- -- --
2019-11-23 08:00:00 -- -- -- -- -- -- -- -- --
2019-11-23 07:00:00 -- -- -- -- -- -- -- -- --
2019-11-23 06:00:00 -- -- -- -- -- -- -- -- --
2019-11-23 05:00:00 -- -- -- -- -- -- -- -- --
2019-11-23 04:00:00 -- -- -- -- -- -- -- -- --
2019-11-23 03:00:00 -- -- -- -- -- -- -- -- --
2019-11-23 02:00:00 -- -- -- -- -- -- -- -- --
2019-11-23 01:00:00 -- -- -- -- -- -- -- -- --
2019-11-23 00:00:00 -- -- -- -- -- -- -- -- --
2019-11-22 23:00:00 -- -- -- -- -- -- -- -- --
2019-11-22 22:00:00 -- -- -- -- -- -- -- -- --
2019-11-22 21:00:00 -- -- -- -- -- -- -- -- --
2019-11-22 20:00:00 -- -- -- -- -- -- -- -- --
2019-11-22 19:00:00 -- -- -- -- -- -- -- -- --
2019-11-22 18:00:00 -- -- -- -- -- -- -- -- --
2019-11-22 17:00:00 -- -- -- -- -- -- -- -- --
2019-11-22 16:00:00 -- -- -- -- -- -- -- -- --
2019-11-22 15:00:00 -- -- -- -- -- -- -- -- --
2019-11-22 14:00:00 -- -- -- -- -- -- -- -- --
2019-11-22 13:00:00 -- -- -- -- -- -- -- -- --
2019-11-22 12:00:00 -- -- -- -- -- -- -- -- --
2019-11-22 11:00:00 -- -- -- -- -- -- -- -- --
2019-11-22 10:00:00 -- -- -- -- -- -- -- -- --
2019-11-22 09:00:00 -- -- -- -- -- -- -- -- --
2019-11-22 08:00:00 -- -- -- -- -- -- -- -- --
2019-11-22 07:00:00 -- -- -- -- -- -- -- -- --
2019-11-22 06:00:00 -- -- -- -- -- -- -- -- --
2019-11-22 05:00:00 -- -- -- -- -- -- -- -- --
2019-11-22 04:00:00 -- -- -- -- -- -- -- -- --
2019-11-22 03:00:00 -- -- -- -- -- -- -- -- --
2019-11-22 02:00:00 -- -- -- -- -- -- -- -- --
2019-11-22 01:00:00 -- -- -- -- -- -- -- -- --
2019-11-22 00:00:00 -- -- -- -- -- -- -- -- --
2019-11-21 23:00:00 -- -- -- -- -- -- -- -- --
2019-11-21 22:00:00 -- -- -- -- -- -- -- -- --
2019-11-21 21:00:00 -- -- -- -- -- -- -- -- --
2019-11-21 20:00:00 -- -- -- -- -- -- -- -- --
2019-11-21 19:00:00 -- -- -- -- -- -- -- -- --
2019-11-21 18:00:00 -- -- -- -- -- -- -- -- --
2019-11-21 17:00:00 -- -- -- -- -- -- -- -- --
2019-11-21 16:00:00 -- -- -- -- -- -- -- -- --
2019-11-21 15:00:00 -- -- -- -- -- -- -- -- --
2019-11-21 14:00:00 -- -- -- -- -- -- -- -- --
2019-11-21 13:00:00 -- -- -- -- -- -- -- -- --
2019-11-21 12:00:00 -- -- -- -- -- -- -- -- --
2019-11-21 11:00:00 -- -- -- -- -- -- -- -- --
2019-11-21 10:00:00 -- -- -- -- -- -- -- -- --
2019-11-21 09:00:00 -- -- -- -- -- -- -- -- --
2019-11-21 08:00:00 -- -- -- -- -- -- -- -- --
2019-11-21 07:00:00 -- -- -- -- -- -- -- -- --
2019-11-21 06:00:00 -- -- -- -- -- -- -- -- --
2019-11-21 05:00:00 -- -- -- -- -- -- -- -- --
2019-11-21 04:00:00 -- -- -- -- -- -- -- -- --
2019-11-21 03:00:00 -- -- -- -- -- -- -- -- --
2019-11-21 02:00:00 -- -- -- -- -- -- -- -- --
2019-11-21 01:00:00 -- -- -- -- -- -- -- -- --
2019-11-21 00:00:00 -- -- -- -- -- -- -- -- --
2019-11-20 23:00:00 -- -- -- -- -- -- -- -- --
2019-11-20 22:00:00 -- -- -- -- -- -- -- -- --
2019-11-20 21:00:00 -- -- -- -- -- -- -- -- --
2019-11-20 20:00:00 -- -- -- -- -- -- -- -- --
2019-11-20 19:00:00 -- -- -- -- -- -- -- -- --
2019-11-20 18:00:00 -- -- -- -- -- -- -- -- --
2019-11-20 17:00:00 -- -- -- -- -- -- -- -- --
2019-11-20 16:00:00 -- -- -- -- -- -- -- -- --
2019-11-20 15:00:00 -- -- -- -- -- -- -- -- --
2019-11-20 14:00:00 -- -- -- -- -- -- -- -- --
2019-11-20 13:00:00 -- -- -- -- -- -- -- -- --
2019-11-20 12:00:00 -- -- -- -- -- -- -- -- --
2019-11-20 11:00:00 -- -- -- -- -- -- -- -- --
2019-11-20 10:00:00 -- -- -- -- -- -- -- -- --
2019-11-20 09:00:00 -- -- -- -- -- -- -- -- --
2019-11-20 08:00:00 -- -- -- -- -- -- -- -- --
2019-11-20 07:00:00 -- -- -- -- -- -- -- -- --
2019-11-20 06:00:00 -- -- -- -- -- -- -- -- --
2019-11-20 05:00:00 -- -- -- -- -- -- -- -- --
2019-11-20 04:00:00 -- -- -- -- -- -- -- -- --
2019-11-20 03:00:00 -- -- -- -- -- -- -- -- --
2019-11-20 02:00:00 -- -- -- -- -- -- -- -- --
2019-11-20 01:00:00 -- -- -- -- -- -- -- -- --
2019-11-20 00:00:00 -- -- -- -- -- -- -- -- --
2019-11-19 23:00:00 -- -- -- -- -- -- -- -- --
2019-11-19 22:00:00 -- -- -- -- -- -- -- -- --
2019-11-19 21:00:00 -- -- -- -- -- -- -- -- --
2019-11-19 20:00:00 -- -- -- -- -- -- -- -- --
2019-11-19 19:00:00 -- -- -- -- -- -- -- -- --
2019-11-19 18:00:00 -- -- -- -- -- -- -- -- --
2019-11-19 17:00:00 -- -- -- -- -- -- -- -- --
2019-11-19 16:00:00 -- -- -- -- -- -- -- -- --
2019-11-19 15:00:00 -- -- -- -- -- -- -- -- --
2019-11-19 14:00:00 -- -- -- -- -- -- -- -- --
2019-11-19 13:00:00 -- -- -- -- -- -- -- -- --
2019-11-19 12:00:00 -- -- -- -- -- -- -- -- --
2019-11-19 11:00:00 -- -- -- -- -- -- -- -- --
2019-11-19 10:00:00 -- -- -- -- -- -- -- -- --
2019-11-19 09:00:00 -- -- -- -- -- -- -- -- --
2019-11-19 08:00:00 -- -- -- -- -- -- -- -- --
2019-11-19 07:00:00 -- -- -- -- -- -- -- -- --
2019-11-19 06:00:00 -- -- -- -- -- -- -- -- --
2019-11-19 05:00:00 -- -- -- -- -- -- -- -- --
2019-11-19 04:00:00 -- -- -- -- -- -- -- -- --
2019-11-19 03:00:00 -- -- -- -- -- -- -- -- --
2019-11-19 02:00:00 -- -- -- -- -- -- -- -- --
2019-11-19 01:00:00 -- -- -- -- -- -- -- -- --
2019-11-19 00:00:00 -- -- -- -- -- -- -- -- --
2019-11-18 23:00:00 -- -- -- -- -- -- -- -- --
2019-11-18 22:00:00 -- -- -- -- -- -- -- -- --
2019-11-18 21:00:00 -- -- -- -- -- -- -- -- --
2019-11-18 20:00:00 -- -- -- -- -- -- -- -- --
2019-11-18 19:00:00 -- -- -- -- -- -- -- -- --
2019-11-18 18:00:00 -- -- -- -- -- -- -- -- --
2019-11-18 17:00:00 -- -- -- -- -- -- -- -- --
2019-11-18 16:00:00 -- -- -- -- -- -- -- -- --
2019-11-18 15:00:00 -- -- -- -- -- -- -- -- --
2019-11-18 14:00:00 -- -- -- -- -- -- -- -- --
2019-11-18 13:00:00 -- -- -- -- -- -- -- -- --
2019-11-18 12:00:00 -- -- -- -- -- -- -- -- --
2019-11-18 11:00:00 -- -- -- -- -- -- -- -- --
2019-11-18 10:00:00 -- -- -- -- -- -- -- -- --
2019-11-18 09:00:00 -- -- -- -- -- -- -- -- --
2019-11-18 08:00:00 -- -- -- -- -- -- -- -- --
2019-11-18 07:00:00 -- -- -- -- -- -- -- -- --
2019-11-18 06:00:00 -- -- -- -- -- -- -- -- --
2019-11-18 05:00:00 -- -- -- -- -- -- -- -- --
2019-11-18 04:00:00 -- -- -- -- -- -- -- -- --
2019-11-18 03:00:00 -- -- -- -- -- -- -- -- --
2019-11-18 02:00:00 -- -- -- -- -- -- -- -- --
2019-11-18 01:00:00 -- -- -- -- -- -- -- -- --
2019-11-18 00:00:00 -- -- -- -- -- -- -- -- --
2019-11-17 23:00:00 -- -- -- -- -- -- -- -- --
2019-11-17 22:00:00 -- -- -- -- -- -- -- -- --
2019-11-17 21:00:00 -- -- -- -- -- -- -- -- --
2019-11-17 20:00:00 -- -- -- -- -- -- -- -- --
2019-11-17 19:00:00 -- -- -- -- -- -- -- -- --
2019-11-17 18:00:00 -- -- -- -- -- -- -- -- --
2019-11-17 17:00:00 -- -- -- -- -- -- -- -- --
2019-11-17 16:00:00 -- -- -- -- -- -- -- -- --
2019-11-17 15:00:00 -- -- -- -- -- -- -- -- --
2019-11-17 14:00:00 -- -- -- -- -- -- -- -- --
2019-11-17 13:00:00 -- -- -- -- -- -- -- -- --
2019-11-17 12:00:00 -- -- -- -- -- -- -- -- --
2019-11-17 11:00:00 -- -- -- -- -- -- -- -- --
2019-11-17 10:00:00 -- -- -- -- -- -- -- -- --
2019-11-17 09:00:00 -- -- -- -- -- -- -- -- --
2019-11-17 08:00:00 -- -- -- -- -- -- -- -- --
2019-11-17 07:00:00 -- -- -- -- -- -- -- -- --
2019-11-17 06:00:00 -- -- -- -- -- -- -- -- --
2019-11-17 05:00:00 -- -- -- -- -- -- -- -- --
2019-11-17 04:00:00 -- -- -- -- -- -- -- -- --
2019-11-17 03:00:00 -- -- -- -- -- -- -- -- --
2019-11-17 02:00:00 -- -- -- -- -- -- -- -- --
2019-11-17 01:00:00 -- -- -- -- -- -- -- -- --
2019-11-17 00:00:00 -- -- -- -- -- -- -- -- --
2019-11-16 23:00:00 -- -- -- -- -- -- -- -- --
2019-11-16 22:00:00 -- -- -- -- -- -- -- -- --
2019-11-16 21:00:00 -- -- -- -- -- -- -- -- --
2019-11-16 20:00:00 -- -- -- -- -- -- -- -- --
2019-11-16 19:00:00 -- -- -- -- -- -- -- -- --
2019-11-16 18:00:00 -- -- -- -- -- -- -- -- --
2019-11-16 17:00:00 -- -- -- -- -- -- -- -- --
2019-11-16 16:00:00 -- -- -- -- -- -- -- -- --
2019-11-16 15:00:00 -- -- -- -- -- -- -- -- --
2019-11-16 14:00:00 -- -- -- -- -- -- -- -- --
2019-11-16 13:00:00 -- -- -- -- -- -- -- -- --
2019-11-16 12:00:00 -- -- -- -- -- -- -- -- --
2019-11-16 11:00:00 -- -- -- -- -- -- -- -- --
2019-11-16 10:00:00 -- -- -- -- -- -- -- -- --
2019-11-16 09:00:00 -- -- -- -- -- -- -- -- --
2019-11-16 08:00:00 -- -- -- -- -- -- -- -- --
2019-11-16 07:00:00 -- -- -- -- -- -- -- -- --
2019-11-16 06:00:00 -- -- -- -- -- -- -- -- --
2019-11-16 05:00:00 -- -- -- -- -- -- -- -- --
2019-11-16 04:00:00 -- -- -- -- -- -- -- -- --
2019-11-16 03:00:00 -- -- -- -- -- -- -- -- --
2019-11-16 02:00:00 -- -- -- -- -- -- -- -- --
2019-11-16 01:00:00 -- -- -- -- -- -- -- -- --
2019-11-16 00:00:00 -- -- -- -- -- -- -- -- --
2019-11-15 23:00:00 -- -- -- -- -- -- -- -- --
2019-11-15 22:00:00 -- -- -- -- -- -- -- -- --
2019-11-15 21:00:00 -- -- -- -- -- -- -- -- --
2019-11-15 20:00:00 -- -- -- -- -- -- -- -- --
2019-11-15 19:00:00 -- -- -- -- -- -- -- -- --
2019-11-15 18:00:00 -- -- -- -- -- -- -- -- --
2019-11-15 17:00:00 -- -- -- -- -- -- -- -- --
2019-11-15 16:00:00 -- -- -- -- -- -- -- -- --
2019-11-15 15:00:00 -- -- -- -- -- -- -- -- --
2019-11-15 14:00:00 -- -- -- -- -- -- -- -- --
2019-11-15 13:00:00 -- -- -- -- -- -- -- -- --
2019-11-15 12:00:00 -- -- -- -- -- -- -- -- --
2019-11-15 11:00:00 0.9 17 Oeste 30 Noroeste 0.8 -- -- 97
2019-11-15 10:00:00 0.3 12 Oeste -- -- 2 -- -- 99
2019-11-15 09:00:00 0.2 12 Oeste 23 Oeste 1.4 -- -- 99
2019-11-15 08:00:00 0 9 Oeste 22 Sudoeste 1.8 -- -- 99
2019-11-15 07:00:00 -- 13 Oeste 23 Oeste 0.6 -- -- --
2019-11-15 06:00:00 -0.1 10 Oeste 30 Oeste -- -- -- 99
2019-11-15 05:00:00 -0.1 12 Sudoeste 25 Sudoeste 0.6 -- -- 98
2019-11-15 04:00:00 -0.1 10 Sudoeste -- -- 1.6 -- -- 98
2019-11-15 03:00:00 0.2 9 Sudoeste 23 Oeste 0.2 -- -- 96
2019-11-15 02:00:00 0.1 13 Oeste 27 Sudoeste 0 -- -- 97
2019-11-15 01:00:00 -0.2 12 Oeste 24 Oeste 0 -- -- 98
2019-11-15 00:00:00 -0.6 3 Noroeste 9 Noroeste 0 -- -- 98
2019-11-14 23:00:00 0 3 Norte 15 Noroeste 0 -- -- 98
2019-11-14 22:00:00 0.3 6 Noroeste 14 Noroeste 0.2 -- -- 98
2019-11-14 21:00:00 0.8 6 Norte 14 Noroeste 0 -- -- 98
2019-11-14 20:00:00 0.9 3 Norte 8 Noroeste 0 -- -- 98
2019-11-14 19:00:00 0.6 3 Este 6 Este 0.2 -- -- 96
2019-11-14 18:00:00 1.5 0 Calma 12 Sur 0.2 -- -- 94
2019-11-14 17:00:00 1.8 3 Sudeste 21 Sudoeste 0.4 -- -- 92
2019-11-14 16:00:00 3.5 10 Oeste 22 Oeste 0 -- -- 81
2019-11-14 15:00:00 4.1 11 Oeste 28 Noroeste 0 -- -- 76
2019-11-14 14:00:00 4.4 11 Oeste 37 Oeste 0 -- -- 71
2019-11-14 13:00:00 4.8 10 Oeste 32 Sur 0 -- -- 78
2019-11-14 12:00:00 3.1 6 Oeste 27 Sudoeste 0 -- -- 88
2019-11-14 11:00:00 2.6 9 Sur 22 Sudoeste 0 -- -- 87
2019-11-14 10:00:00 2 15 Sudoeste 28 Sudoeste 0 -- -- 89
2019-11-14 09:00:00 -0.1 8 Sudoeste 19 Sudoeste 0 -- -- 97
2019-11-14 08:00:00 -0.5 5 Oeste 14 Noroeste 0 -- -- 95
2019-11-14 07:00:00 0.5 12 Noroeste 21 Noroeste 0 -- -- 95
2019-11-14 06:00:00 0.8 13 Noroeste 31 Noroeste 0.2 -- -- 97
2019-11-14 05:00:00 0.5 6 Oeste 13 Noroeste 1.4 -- -- 97
2019-11-14 04:00:00 0.9 4 Noroeste 20 Noroeste 2.4 -- -- 97
2019-11-14 03:00:00 1.9 11 Noroeste 23 Norte 4.2 -- -- 93
2019-11-14 02:00:00 5.8 12 Noroeste 32 Oeste 0 -- -- 86
2019-11-14 01:00:00 6.3 9 Oeste 37 Oeste 0 -- -- 80
2019-11-14 00:00:00 6.2 6 Oeste 26 Sudoeste 0 -- -- 81
2019-11-13 23:00:00 6.5 11 Sudoeste 45 Oeste 0 -- -- 81
2019-11-13 22:00:00 7.5 7 Noroeste 28 Sudoeste 0 -- -- 83
2019-11-13 21:00:00 7.7 6 Noroeste 18 Sudoeste 0 -- -- 84
2019-11-13 20:00:00 7.5 8 Sur 26 Sur 0 -- -- 88
2019-11-13 19:00:00 5.1 2 Nordeste 12 Sur 0 -- -- 94
2019-11-13 18:00:00 5.7 5 Sudeste 11 Sur 0 -- -- 91
2019-11-13 17:00:00 7.7 5 Oeste 24 Oeste 0 -- -- 84
2019-11-13 16:00:00 8 13 Noroeste 26 Noroeste 0 -- -- 84
2019-11-13 15:00:00 7.4 14 Noroeste 24 Noroeste 0 -- -- 88
2019-11-13 14:00:00 7.8 9 Noroeste 16 Noroeste 0 -- -- 91
2019-11-13 13:00:00 7.6 9 Norte 24 Noroeste 0 -- -- 89
2019-11-13 12:00:00 7 7 Norte 21 Noroeste 0.4 -- -- 95
2019-11-13 11:00:00 7.3 9 Noroeste 25 Norte 0 -- -- 93
2019-11-13 10:00:00 5.9 7 Nordeste 22 Norte 0 -- -- 97
2019-11-13 09:00:00 5.3 9 Nordeste 34 Noroeste 0 -- -- 95
2019-11-13 08:00:00 5.4 19 Norte 36 Noroeste 1.4 -- -- 98
2019-11-13 07:00:00 5.5 14 Norte 31 Norte 1.2 -- -- 99
2019-11-13 06:00:00 5.2 12 Noroeste 26 Norte 0.2 -- -- 99
2019-11-13 05:00:00 5.1 6 Norte 32 Norte 0.4 -- -- 98
2019-11-13 04:00:00 5.8 21 Norte 34 Norte 2.2 -- -- 98
2019-11-13 03:00:00 6.2 0 Calma 20 Noroeste 0.4 -- -- 99
2019-11-13 02:00:00 6.1 3 Sur 19 Sudoeste 0 -- -- 99
2019-11-13 01:00:00 5.8 8 Oeste 18 Oeste 0.4 -- -- 99
2019-11-13 00:00:00 5.6 8 Oeste 17 Oeste 0.2 -- -- 99
2019-11-12 23:00:00 5.5 5 Sudoeste 17 Sudoeste 1.4 -- -- 98
2019-11-12 22:00:00 5.3 4 Sudoeste 18 Sur 0.4 -- -- 97
2019-11-12 21:00:00 5.2 7 Sur 31 Sudoeste 0.8 -- -- 95
2019-11-12 20:00:00 5.2 9 Sudoeste 28 Sudoeste 2.6 -- -- 95
2019-11-12 19:00:00 5.6 5 Sudoeste 21 Sudoeste 1.2 -- -- 93
2019-11-12 18:00:00 6.6 10 Sudoeste 21 Sur 0 -- -- 88
2019-11-12 17:00:00 7.4 5 Sudoeste 11 Sudoeste 0 -- -- 83
2019-11-12 16:00:00 7.9 5 Sudoeste 19 Oeste 0 -- -- 77
2019-11-12 15:00:00 8.2 7 Sudoeste 20 Sudoeste 0 -- -- 76
2019-11-12 14:00:00 8.8 13 Oeste 23 Sudoeste 0 -- -- 76
2019-11-12 13:00:00 8.1 9 Oeste 27 Oeste 0 -- -- 81
2019-11-12 12:00:00 6.4 11 Oeste 27 Oeste 0 -- -- 87
2019-11-12 11:00:00 5.9 15 Noroeste 27 Noroeste 0 -- -- 85
2019-11-12 10:00:00 4.9 15 Oeste 28 Oeste 0 -- -- 92
2019-11-12 09:00:00 3.9 14 Oeste 28 Oeste 0 -- -- 93
2019-11-12 08:00:00 3.6 11 Noroeste 30 Noroeste 0 -- -- 94
2019-11-12 07:00:00 3.6 9 Oeste 30 Noroeste 0 -- -- 93
2019-11-12 06:00:00 3.5 17 Oeste 34 Noroeste 0 -- -- 94
2019-11-12 05:00:00 3.5 19 Noroeste 35 Noroeste 0 -- -- 95
2019-11-12 04:00:00 2.9 11 Noroeste 27 Noroeste 0 -- -- 98
2019-11-12 03:00:00 2.9 13 Noroeste 27 Oeste 0 -- -- 100
2019-11-12 02:00:00 2.1 6 Sudoeste 12 Sudoeste 0 -- -- 100
2019-11-12 01:00:00 1.6 0 Calma 6 Norte 0 -- -- 99
2019-11-12 00:00:00 1.1 5 Norte 8 Norte 0 -- -- 99
2019-11-11 23:00:00 1.3 0 Calma 3 Sur 0 -- -- 97
2019-11-11 22:00:00 2 0 Calma 11 Oeste 0 -- -- 97
2019-11-11 21:00:00 2.9 6 Noroeste 20 Noroeste 0.4 -- -- 96
2019-11-11 20:00:00 3.3 6 Noroeste 20 Norte 0.2 -- -- 96
2019-11-11 19:00:00 3.6 13 Norte 29 Norte 0.4 -- -- 94
2019-11-11 18:00:00 4.3 9 Norte 19 Norte 0 -- -- 93
2019-11-11 17:00:00 4.9 4 Noroeste 19 Noroeste 0.6 -- -- 94
2019-11-11 16:00:00 5.2 9 Norte 44 Norte 0 -- -- 91
2019-11-11 15:00:00 5.7 12 Norte 37 Noroeste 0 -- -- 89
2019-11-11 14:00:00 6 18 Norte 43 Noroeste 0.6 -- -- 91
2019-11-11 13:00:00 7.2 21 Norte 44 Norte 0 -- -- 94
2019-11-11 12:00:00 7.1 11 Noroeste 27 Oeste 0 -- -- 97
2019-11-11 11:00:00 5.3 13 Oeste 31 Oeste 0 -- -- 99
2019-11-11 10:00:00 3.6 14 Oeste 26 Oeste 0 -- -- 99
2019-11-11 09:00:00 3.1 9 Oeste 25 Sudoeste 0 -- -- 100
2019-11-11 08:00:00 2.7 9 Oeste 28 Sudoeste 0 -- -- 99
2019-11-11 07:00:00 2.6 5 Sur 13 Oeste 0 -- -- 100
2019-11-11 06:00:00 2.5 7 Oeste 14 Oeste 0 -- -- 100
2019-11-11 05:00:00 2.1 3 Este 13 Oeste 0 -- -- 100
2019-11-11 04:00:00 1.7 2 Nordeste 10 Noroeste 0 -- -- 100
2019-11-11 03:00:00 1.9 2 Este 7 Este 0 -- -- 100
2019-11-11 02:00:00 1.9 5 Sur 13 Sur 0.2 -- -- 100
2019-11-11 01:00:00 2 5 Sudoeste 19 Oeste 0 -- -- 100
2019-11-11 00:00:00 1.5 5 Oeste 13 Oeste 0 -- -- 100